South River, Canada
Current Conditions -  °F | °C
As of 8:00 PM on Saturday 25 Oct 2014 (Local Time) from CYYB Reporting Station
Overcast Overcast  
Wind Chill: 50°   Ceiling: 2000
Heat Index: 50°   Visibility: 15mi
Dew Point: 36°   Wind: 20mph
Humidity: 58%   Direction: 290°WNW
Pressure: 29.47"   Gusts: NA
Location:  45.85°N, 79.37°W
Report Text: CYYB 260000Z 29017KT 15SM OVC020 10/02 A2947 RMK SC8 SLP987 DENSITY ALT 1300FT
Loading
Personal Weather Stations






























Interactive Weather Map
Tropical Storm Tracking
New forecast layout! Learn more

10-Day Weather Forecast

Advertisements
Track Severe Weather on mobile